createdAt,value
2024-04-12T00:00:13.279Z,21.2
2024-04-12T00:15:38.438Z,22
2024-04-12T00:31:03.178Z,19.7
2024-04-12T00:46:28.302Z,19.1
2024-04-12T01:01:53.088Z,18.6
2024-04-12T01:17:18.205Z,19
2024-04-12T01:32:43.624Z,20.7
2024-04-12T01:48:09.326Z,22.1
2024-04-12T02:03:34.726Z,22.2
2024-04-12T02:19:00.652Z,21.4
2024-04-12T02:34:26.526Z,22.3
2024-04-12T02:49:51.094Z,21
2024-04-12T03:05:16.246Z,21.2
2024-04-12T03:20:40.933Z,21.7
2024-04-12T03:36:05.642Z,20.1
2024-04-12T03:51:30.287Z,19.5
2024-04-12T04:06:55.066Z,19.5
2024-04-12T04:22:19.675Z,19.1
2024-04-12T04:37:44.743Z,18
2024-04-12T04:53:09.494Z,20.2
2024-04-12T05:08:34.191Z,20.9
2024-04-12T05:23:59.200Z,21.1
2024-04-12T05:39:24.573Z,21.9
2024-04-12T05:54:49.255Z,22.4
2024-04-12T06:10:13.902Z,21.4
2024-04-12T06:25:39.030Z,21.1
2024-04-12T06:41:04.631Z,16.9
2024-04-12T06:56:30.036Z,10.9
2024-04-12T07:11:55.539Z,7.6
2024-04-12T07:27:21.710Z,6.6
2024-04-12T07:42:46.550Z,5.9
2024-04-12T07:58:12.028Z,6.1
2024-04-12T08:13:36.949Z,5.2
2024-04-12T08:29:02.201Z,5.4
2024-04-12T08:44:27.357Z,6.6
2024-04-12T08:59:52.278Z,6.8
2024-04-12T09:15:17.593Z,6.7
2024-04-12T09:30:43.051Z,7.3
2024-04-12T09:46:08.165Z,8.9
2024-04-12T10:01:33.665Z,8.4
2024-04-12T10:16:59.554Z,9
2024-04-12T10:32:25.126Z,8
2024-04-12T10:47:51.333Z,7.8
2024-04-12T11:03:21.140Z,8.3
2024-04-12T11:18:51.888Z,7.9
2024-04-12T11:34:28.409Z,7
2024-04-12T11:50:06.603Z,6.9
2024-04-12T12:05:32.169Z,7
2024-04-12T12:20:57.661Z,8.1
2024-04-12T12:36:22.706Z,9.2
2024-04-12T12:51:47.817Z,9.6
2024-04-12T13:07:12.817Z,9.2
2024-04-12T13:22:37.582Z,8.8
2024-04-12T13:38:02.481Z,10.1
2024-04-12T13:53:27.192Z,10.9
2024-04-12T14:08:52.671Z,11.3
2024-04-12T14:24:18.088Z,11.4
2024-04-12T14:39:43.096Z,11.1
2024-04-12T14:55:07.916Z,12
2024-04-12T15:10:33.009Z,13.3
2024-04-12T15:25:58.312Z,13.2
2024-04-12T15:41:23.229Z,11.5
2024-04-12T15:56:47.774Z,12.8
2024-04-12T16:12:13.008Z,11.4
2024-04-12T16:27:38.269Z,10
2024-04-12T16:43:03.231Z,9.5
2024-04-12T16:58:28.282Z,9.8
2024-04-12T17:13:52.579Z,10
2024-04-12T17:29:17.206Z,10
2024-04-12T17:44:41.968Z,10.4
2024-04-12T18:00:07.378Z,10.1
2024-04-12T18:15:32.052Z,11.3
2024-04-12T18:30:57.531Z,10.6
2024-04-12T18:46:22.501Z,10.8
2024-04-12T19:01:47.680Z,11.5
2024-04-12T19:17:11.768Z,11.3
2024-04-12T19:32:36.912Z,11.5
2024-04-12T19:48:02.535Z,11.7
2024-04-12T20:03:28.422Z,10.5
2024-04-12T20:18:53.724Z,9.6
2024-04-12T20:34:19.251Z,9.6
2024-04-12T20:49:43.731Z,8.6
2024-04-12T21:05:08.231Z,8.1
2024-04-12T21:20:34.073Z,8.5
2024-04-12T21:35:59.316Z,8.8
2024-04-12T21:51:24.454Z,9.2
2024-04-12T22:06:50.749Z,9
2024-04-12T22:22:16.096Z,9.2
2024-04-12T22:37:40.729Z,9
2024-04-12T22:53:05.668Z,9.4
2024-04-12T23:08:29.966Z,9.9
2024-04-12T23:23:55.022Z,10.3
2024-04-12T23:39:20.341Z,10
2024-04-12T23:54:45.172Z,10.3
